Terminal Aerodrome Forecast
Issued by NWS Memphis, TN

Home | Current Version | Previous Version | Text Only | Print | Product List | Glossary On
Versions: 1 2 3 4 5 6 7 8 9 10 11 12 13 14
415
FTUS44 KMEG 261131
TAFMKL
TAF
KMKL 261131Z 2612/2712 VRB03KT P6SM FEW250
     FM261500 19004KT P6SM SCT035 SCT250
     FM262000 VRB04KT P6SM VCTS SCT060CB BKN120
     FM270100 VRB03KT P6SM FEW150 SCT250=

USA.gov is the U.S. government's official web portal to all federal, state and local government web resources and services.